Time;durP1;ratioP1;P1;durP2;ratioP2;P2;SDS_P1;SDS_P2;PMS_P1;PMS_P2;Temp;Humidity;BMP_temperature;BMP_pressure;BME280_temperature;BME280_humidity;BME280_pressure;Samples;Min_cycle;Max_cycle;Signal;HPM_P1;HPM_P2
2022/03/15 00:00:20;;;;;;;15.73;10.17;;;2.60;95.10;;;1.19;89.42;99228.56;5015687;28;20457;-74
2022/03/15 00:02:49;;;;;;;14.70;9.67;;;2.50;95.80;;;1.27;88.96;99225.28;5015814;28;20466;-73
2022/03/15 00:05:16;;;;;;;12.10;9.80;;;2.60;94.50;;;1.28;88.77;99234.97;5015998;28;20451;-74
2022/03/15 00:07:43;;;;;;;16.60;9.53;;;2.60;93.90;;;1.22;88.93;99227.47;5015718;28;20451;-74
2022/03/15 00:10:12;;;;;;;13.90;10.50;;;2.60;94.00;;;1.32;88.56;99228.44;5014462;28;20443;-75
2022/03/15 00:12:41;;;;;;;16.90;10.50;;;2.70;94.10;;;1.34;88.09;99225.63;5014197;28;20449;-75
2022/03/15 00:15:09;;;;;;;12.13;9.27;;;2.80;93.20;;;1.25;88.55;99238.75;5015530;28;20497;-74
2022/03/15 00:17:36;;;;;;;15.07;10.33;;;2.70;93.00;;;1.31;88.21;99240.06;5015510;28;20447;-74
2022/03/15 00:20:05;;;;;;;17.20;12.07;;;2.70;92.80;;;1.29;88.19;99228.69;5013999;28;20441;-75
2022/03/15 00:22:36;;;;;;;14.87;10.50;;;2.70;93.20;;;1.14;89.22;99230.78;5013502;28;20473;-74
2022/03/15 00:25:03;;;;;;;13.00;10.10;;;2.70;93.00;;;1.24;88.68;99220.22;5014030;28;20445;-74
2022/03/15 00:27:30;;;;;;;12.23;10.77;;;2.70;93.40;;;1.35;88.20;99216.66;5015383;28;20854;-74
2022/03/15 00:29:59;;;;;;;16.23;10.87;;;2.70;93.30;;;1.33;88.27;99219.47;5013761;28;20533;-74
2022/03/15 00:32:26;;;;;;;20.03;9.83;;;2.80;93.10;;;1.13;88.72;99205.94;5013476;28;20833;-74
2022/03/15 00:34:53;;;;;;;22.20;11.70;;;2.70;92.50;;;1.01;89.30;99214.97;5014110;28;20443;-74
2022/03/15 00:37:21;;;;;;;11.80;9.60;;;2.50;93.40;;;0.85;90.05;99212.69;5013464;28;20541;-75
2022/03/15 00:39:49;;;;;;;13.00;9.97;;;2.40;94.30;;;0.77;90.69;99217.78;5013641;28;20826;-75
2022/03/15 00:42:16;;;;;;;16.23;10.47;;;2.20;95.50;;;0.77;90.68;99207.97;5013644;28;20497;-74
2022/03/15 00:44:43;;;;;;;11.33;9.20;;;2.20;96.70;;;1.16;89.57;99212.03;5014791;28;20496;-74
2022/03/15 00:47:11;;;;;;;13.43;10.70;;;2.40;96.90;;;0.94;88.77;99161.38;5014886;28;20498;-75
2022/03/15 00:49:38;;;;;;;14.40;9.57;;;2.60;94.60;;;1.09;89.15;99201.84;5015356;28;20474;-75
2022/03/15 00:52:06;;;;;;;12.53;8.67;;;2.50;94.30;;;1.08;89.59;99194.84;5015451;28;20502;-74
2022/03/15 00:54:33;;;;;;;13.27;9.80;;;2.50;94.90;;;1.19;89.38;99195.78;5014752;28;20442;-75
2022/03/15 00:57:00;;;;;;;11.63;9.50;;;2.60;94.70;;;1.25;88.92;99189.94;5013719;28;20537;-74
2022/03/15 00:59:26;;;;;;;10.47;8.13;;;2.60;94.30;;;1.30;88.65;99184.25;5014329;28;20550;-74
2022/03/15 01:01:56;;;;;;;13.10;9.77;;;2.70;93.70;;;1.30;88.95;99181.59;5012916;28;20566;-74
2022/03/15 01:04:25;;;;;;;15.80;9.60;;;2.70;93.80;;;1.25;89.24;99180.16;5015078;28;20482;-75
2022/03/15 01:06:52;;;;;;;11.73;8.40;;;2.70;93.80;;;1.28;89.09;99173.72;5014733;28;20444;-75
2022/03/15 01:09:19;;;;;;;12.27;8.27;;;2.70;93.70;;;1.30;89.22;99170.94;5013876;28;20450;-75
2022/03/15 01:11:46;;;;;;;9.20;8.20;;;2.70;93.90;;;1.24;89.28;99172.28;5014143;28;20527;-75
2022/03/15 01:14:13;;;;;;;12.90;8.43;;;2.70;94.20;;;1.21;89.37;99173.38;5013037;28;20538;-75
2022/03/15 01:16:40;;;;;;;11.90;8.70;;;2.70;93.50;;;1.06;90.32;99175.50;5014354;28;20439;-75
2022/03/15 01:19:08;;;;;;;12.70;8.90;;;2.60;94.30;;;1.05;90.32;99173.81;5014275;28;20438;-76
2022/03/15 01:21:38;;;;;;;8.87;7.73;;;2.50;95.50;;;1.16;90.16;99174.75;5012872;28;22332;-75
2022/03/15 01:24:07;;;;;;;12.37;8.73;;;2.60;95.40;;;1.12;89.76;99180.31;5014107;28;20481;-74
2022/03/15 01:26:34;;;;;;;11.87;8.67;;;2.60;94.50;;;1.16;90.40;99177.41;5014020;28;20530;-74
2022/03/15 01:29:02;;;;;;;9.73;8.20;;;2.60;95.10;;;1.16;89.63;99175.59;5014467;28;20443;-73
2022/03/15 01:31:29;;;;;;;10.90;8.50;;;2.60;94.40;;;1.13;89.29;99163.34;5012989;28;20451;-74
2022/03/15 01:33:56;;;;;;;10.50;8.23;;;2.60;93.70;;;1.11;89.01;99172.47;5013685;28;20453;-73
2022/03/15 01:36:23;;;;;;;13.30;8.63;;;2.60;93.50;;;1.01;89.45;99166.19;5012856;28;20463;-72
2022/03/15 01:38:53;;;;;;;14.43;8.43;;;2.50;93.80;;;0.95;89.77;99157.75;5013880;28;20544;-73
2022/03/15 01:41:21;;;;;;;11.77;7.93;;;2.40;94.10;;;0.87;90.20;99164.69;5014070;28;20455;-73
2022/03/15 01:43:48;;;;;;;11.50;7.43;;;2.40;94.80;;;0.77;90.34;99168.06;5013646;28;20481;-73
2022/03/15 01:46:16;;;;;;;15.63;8.07;;;2.30;94.90;;;0.71;90.97;99168.59;5013617;28;20633;-74
2022/03/15 01:48:43;;;;;;;14.53;8.40;;;2.10;96.60;;;0.88;90.64;99163.69;5013571;28;20449;-73
2022/03/15 01:51:14;;;;;;;12.90;8.17;;;2.20;97.10;;;0.85;90.63;99164.78;4993014;28;20459;-72
2022/03/15 01:53:41;;;;;;;12.10;8.80;;;2.20;96.40;;;0.82;90.59;99152.56;4994320;28;20448;-74
2022/03/15 01:56:09;;;;;;;10.60;8.43;;;2.30;96.00;;;0.87;90.52;99157.53;4994335;28;20485;-73
2022/03/15 01:58:36;;;;;;;15.00;8.63;;;2.30;95.70;;;0.80;90.62;99154.50;4993989;28;20486;-75
2022/03/15 02:01:03;;;;;;;14.23;9.10;;;2.30;95.50;;;0.80;90.39;99146.53;4992890;28;20526;-73
2022/03/15 02:03:32;;;;;;;12.93;8.80;;;2.30;95.20;;;0.79;90.11;99144.84;4993990;28;20470;-73
2022/03/15 02:06:01;;;;;;;9.43;7.73;;;2.20;95.20;;;0.82;89.52;99141.94;4992727;28;20451;-72
2022/03/15 02:08:29;;;;;;;11.20;8.50;;;2.30;94.90;;;0.46;90.24;99088.09;4992719;28;20498;-72
2022/03/15 02:10:56;;;;;;;12.10;8.87;;;2.20;95.20;;;0.78;90.45;99152.97;5008570;28;20503;-72
2022/03/15 02:13:24;;;;;;;12.10;8.43;;;2.30;94.90;;;0.60;90.83;99156.13;4993871;28;20521;-73
2022/03/15 02:15:51;;;;;;;12.20;9.10;;;2.10;95.30;;;0.74;90.52;99146.19;4995195;28;20533;-74
2022/03/15 02:18:21;;;;;;;12.87;9.70;;;2.10;96.80;;;0.61;91.00;99139.22;4996326;28;20443;-75
2022/03/15 02:20:50;;;;;;;11.17;8.17;;;2.20;95.70;;;0.68;91.21;99142.19;4997873;28;20434;-75
2022/03/15 02:23:17;;;;;;;9.73;8.40;;;2.20;95.90;;;0.61;91.89;99138.34;4997908;28;20498;-76
2022/03/15 02:25:44;;;;;;;12.00;9.00;;;2.10;95.90;;;0.67;91.55;99132.53;4997863;28;20479;-75
2022/03/15 02:28:10;;;;;;;10.03;9.00;;;2.10;97.40;;;0.74;90.85;99133.75;5012450;28;20797;-75
2022/03/15 02:30:37;;;;;;;13.03;9.00;;;2.10;97.60;;;0.71;90.77;99139.31;5012723;28;20525;-75
2022/03/15 02:33:04;;;;;;;12.50;8.90;;;2.20;96.20;;;0.72;90.66;99124.19;4997804;28;20538;-75
2022/03/15 02:35:31;;;;;;;16.60;8.87;;;2.10;96.80;;;0.69;90.85;99115.47;5012912;28;20989;-74
2022/03/15 02:38:00;;;;;;;11.40;8.00;;;2.10;96.50;;;0.70;90.82;99116.34;4997618;28;20466;-74
2022/03/15 02:40:27;;;;;;;11.80;8.23;;;2.20;97.00;;;0.74;90.26;99108.94;4996058;28;20852;-74
2022/03/15 02:42:54;;;;;;;16.57;8.63;;;2.20;96.10;;;0.78;91.03;99113.06;4997598;28;20478;-75
2022/03/15 02:45:22;;;;;;;16.23;9.30;;;2.20;96.40;;;0.80;90.62;99122.59;4997219;28;20447;-75
2022/03/15 02:47:49;;;;;;;12.43;8.80;;;2.20;96.00;;;0.73;91.28;99124.06;4997780;28;20461;-75
2022/03/15 02:50:16;;;;;;;11.37;8.13;;;2.20;95.70;;;0.87;90.63;99122.94;4997769;28;20463;-74
2022/03/15 02:52:43;;;;;;;9.10;8.03;;;2.30;96.20;;;0.83;90.51;99111.72;4997374;28;20570;-75
2022/03/15 02:55:12;;;;;;;14.70;9.07;;;2.30;95.50;;;0.80;90.41;99117.25;4998214;28;20447;-75
2022/03/15 02:57:39;;;;;;;12.13;8.50;;;2.30;95.20;;;0.69;90.90;99120.81;4997813;28;20444;-75
2022/03/15 03:00:10;;;;;;;14.00;8.97;;;2.20;95.50;;;0.70;91.19;99121.66;4997817;28;20502;-75
2022/03/15 03:02:37;;;;;;;14.83;7.83;;;2.20;96.00;;;0.38;91.78;99109.13;5008039;28;20466;-74
2022/03/15 03:05:04;;;;;;;14.00;9.80;;;2.00;96.50;;;0.43;92.22;99133.56;5020296;28;20530;-74
2022/03/15 03:07:34;;;;;;;9.80;8.20;;;1.90;98.30;;;0.51;93.30;99136.44;5034245;28;20452;-75
2022/03/15 03:10:02;;;;;;;15.70;8.70;;;1.90;99.90;;;0.58;92.47;99134.13;4998298;28;20439;-75
2022/03/15 03:12:30;;;;;;;12.73;9.17;;;1.90;99.90;;;0.77;90.94;99122.84;4998552;28;20442;-75
2022/03/15 03:14:59;;;;;;;11.87;9.50;;;2.10;97.70;;;0.75;90.93;99114.16;4994184;28;20442;-75
2022/03/15 03:17:26;;;;;;;11.33;7.60;;;2.20;96.80;;;0.66;91.03;99123.72;4993939;28;20436;-74
2022/03/15 03:19:53;;;;;;;11.67;7.53;;;2.10;96.30;;;0.51;92.01;99117.81;5003627;28;20473;-74
2022/03/15 03:22:20;;;;;;;11.27;7.43;;;2.00;96.70;;;0.42;92.47;99123.91;5016191;28;20564;-74
2022/03/15 03:24:47;;;;;;;10.57;7.40;;;1.90;98.10;;;0.61;91.88;99130.38;5015755;28;20508;-75
2022/03/15 03:27:14;;;;;;;10.00;8.20;;;2.00;98.80;;;0.51;92.63;99131.13;5014689;28;20471;-74
2022/03/15 03:29:43;;;;;;;10.10;7.93;;;1.90;98.60;;;0.78;91.79;99119.22;5014493;28;20538;-73
2022/03/15 03:32:12;;;;;;;10.73;8.97;;;2.10;99.90;;;0.61;91.03;99117.94;5015910;28;20938;-73
2022/03/15 03:34:39;;;;;;;12.57;7.70;;;2.10;96.70;;;0.45;92.20;99094.38;5016277;28;20949;-73
2022/03/15 03:37:05;;;;;;;11.40;7.80;;;2.00;97.80;;;0.77;91.93;99122.00;5014632;28;20992;-73
2022/03/15 03:39:33;;;;;;;10.33;9.03;;;2.10;99.20;;;0.86;90.94;99110.59;5015697;28;20470;-73
2022/03/15 03:42:00;;;;;;;12.07;8.47;;;2.20;97.40;;;0.70;90.87;99109.19;5014637;28;20467;-73
2022/03/15 03:44:28;;;;;;;12.80;8.93;;;2.10;95.90;;;0.75;90.92;99114.16;5015578;28;20941;-72
2022/03/15 03:46:56;;;;;;;12.20;8.70;;;2.10;96.50;;;0.70;91.04;99095.06;5014430;28;20537;-72
2022/03/15 03:49:23;;;;;;;16.70;9.33;;;2.10;96.10;;;0.77;90.98;99101.56;5014557;28;20482;-75
2022/03/15 03:51:50;;;;;;;11.10;8.83;;;2.20;96.20;;;0.80;89.50;99095.16;5014210;28;20754;-75
2022/03/15 03:54:17;;;;;;;14.47;8.30;;;2.30;93.70;;;0.80;89.82;99111.94;5015429;28;20446;-73
2022/03/15 03:56:44;;;;;;;11.60;8.67;;;2.30;93.70;;;0.66;90.20;99106.91;5016329;28;20521;-75
2022/03/15 03:59:12;;;;;;;15.17;9.70;;;2.10;93.90;;;0.66;90.28;99109.56;5015633;28;20525;-74
2022/03/15 04:01:39;;;;;;;24.17;16.30;;;2.20;94.40;;;0.50;91.02;99105.50;5015835;28;20446;-73
2022/03/15 04:04:08;;;;;;;26.07;14.93;;;2.00;94.90;;;0.44;91.74;99098.03;5015326;28;20801;-75
2022/03/15 04:06:35;;;;;;;32.80;20.17;;;1.90;96.30;;;0.54;91.75;99091.00;5016634;28;20454;-74
2022/03/15 04:09:03;;;;;;;46.57;28.30;;;1.90;97.80;;;0.69;91.27;99098.69;5015284;28;20443;-74
2022/03/15 04:11:31;;;;;;;30.93;20.43;;;2.00;98.10;;;0.56;90.58;99102.34;5015508;28;20441;-73
2022/03/15 04:13:59;;;;;;;29.03;19.10;;;2.00;95.70;;;0.72;90.43;99094.91;5015263;28;20451;-74
2022/03/15 04:16:26;;;;;;;33.27;22.60;;;2.10;96.50;;;0.78;89.60;99097.09;5015260;28;20450;-73
2022/03/15 04:18:54;;;;;;;36.20;23.00;;;2.20;94.80;;;0.70;90.25;99087.09;5030401;28;20981;-74
2022/03/15 04:21:24;;;;;;;27.90;16.60;;;2.10;95.00;;;0.71;89.81;99083.44;5015514;28;20818;-72
2022/03/15 04:23:52;;;;;;;27.43;15.60;;;2.20;93.90;;;0.63;90.22;99091.19;5030489;28;21085;-72
2022/03/15 04:26:19;;;;;;;24.27;15.80;;;2.10;94.70;;;0.64;90.22;99091.09;5015761;28;20514;-72
2022/03/15 04:28:46;;;;;;;21.13;15.13;;;2.10;95.00;;;0.66;89.72;99088.28;5030235;28;20449;-72
2022/03/15 04:31:13;;;;;;;20.23;13.70;;;2.10;94.10;;;0.58;90.10;99064.97;5015235;28;20505;-71
2022/03/15 04:33:41;;;;;;;17.60;14.00;;;2.10;95.10;;;0.54;90.54;99080.34;5013510;28;20444;-72
2022/03/15 04:36:08;;;;;;;18.00;15.37;;;2.00;94.50;;;0.52;91.40;99092.91;5031356;28;20468;-70
2022/03/15 04:38:37;;;;;;;20.60;13.97;;;2.00;96.20;;;0.92;89.66;99087.97;5013742;28;20454;-72
2022/03/15 04:41:05;;;;;;;18.10;13.60;;;2.20;96.30;;;0.64;90.43;99095.53;5030487;28;20498;-72
2022/03/15 04:43:32;;;;;;;13.30;10.10;;;2.10;94.90;;;0.73;89.98;99096.59;5029990;28;20552;-72
2022/03/15 04:45:59;;;;;;;15.27;11.20;;;2.10;95.10;;;0.64;90.66;99088.44;5031174;28;20525;-73
2022/03/15 04:48:26;;;;;;;21.00;13.37;;;2.00;95.50;;;0.72;89.76;99081.63;5013164;28;20447;-75
2022/03/15 04:50:54;;;;;;;18.97;13.37;;;2.10;94.30;;;0.56;90.48;99070.44;5023206;28;20941;-74
2022/03/15 04:53:21;;;;;;;39.70;20.63;;;2.10;94.10;;;0.63;89.78;99062.78;4994601;28;20454;-75
2022/03/15 04:55:49;;;;;;;39.67;21.63;;;2.10;94.00;;;0.62;90.39;99060.25;4995099;28;20456;-76
2022/03/15 04:58:16;;;;;;;27.87;20.00;;;2.10;94.30;;;0.58;89.94;99050.84;4995098;28;20472;-75
2022/03/15 05:00:43;;;;;;;18.17;12.20;;;2.10;93.80;;;0.61;89.75;99053.25;5009837;28;20539;-74
2022/03/15 05:03:10;;;;;;;15.90;11.97;;;2.00;94.80;;;0.65;89.38;99046.69;4993155;28;20883;-75
2022/03/15 05:05:37;;;;;;;14.80;10.80;;;2.10;94.10;;;0.60;89.00;99040.91;4994124;28;20444;-74
2022/03/15 05:08:05;;;;;;;13.33;10.00;;;2.10;93.20;;;0.37;89.31;99036.50;4995357;28;20451;-77
2022/03/15 05:13:20;;;;;;;14.97;9.57;;;1.80;94.70;;;0.42;90.44;99052.09;4994812;28;20488;-72
2022/03/15 05:15:47;;;;;;;11.30;10.10;;;1.80;95.40;;;0.44;90.34;99044.84;4992970;28;20446;-73
2022/03/15 05:18:15;;;;;;;13.87;10.73;;;1.90;95.10;;;0.37;89.82;99046.28;4993893;28;20783;-75
2022/03/15 05:20:42;;;;;;;13.30;9.27;;;1.90;93.90;;;0.30;90.28;99039.78;4994658;28;20480;-75
2022/03/15 05:23:09;;;;;;;15.33;9.43;;;1.80;94.10;;;0.20;90.73;99045.84;4994472;28;20879;-75
2022/03/15 05:25:36;;;;;;;12.17;10.37;;;1.70;94.90;;;0.21;91.08;99034.25;4994769;28;20600;-74
2022/03/15 05:28:03;;;;;;;11.20;9.70;;;1.70;96.30;;;0.06;91.57;99006.25;4992937;28;20451;-73
2022/03/15 05:30:31;;;;;;;10.60;9.50;;;1.70;96.50;;;0.17;91.80;99027.50;4993081;28;20515;-74
2022/03/15 05:32:58;;;;;;;16.27;9.73;;;1.70;96.70;;;0.16;91.79;99036.44;4994660;28;21005;-74
2022/03/15 05:35:25;;;;;;;16.07;10.57;;;1.60;97.30;;;0.17;92.66;99038.13;4993986;28;20969;-75
2022/03/15 05:37:52;;;;;;;12.57;10.50;;;1.60;98.50;;;0.26;92.41;99037.41;4994350;28;20527;-74
2022/03/15 05:40:20;;;;;;;10.80;8.80;;;1.70;99.20;;;0.30;92.42;99030.00;4993205;28;20472;-80
2022/03/15 05:42:47;;;;;;;13.10;10.53;;;1.70;99.10;;;0.34;91.43;99025.28;5009330;28;21001;-77
2022/03/15 05:45:14;;;;;;;12.93;10.13;;;1.80;97.10;;;0.49;91.83;99017.88;4994567;28;20916;-79
2022/03/15 05:47:42;;;;;;;20.23;10.43;;;1.90;98.70;;;0.77;89.78;99021.75;4994472;28;20448;-79
2022/03/15 05:50:10;;;;;;;17.20;12.10;;;2.10;95.40;;;0.90;89.71;99012.72;4994407;28;20937;-76
2022/03/15 05:52:37;;;;;;;15.80;10.67;;;2.20;95.50;;;1.00;89.29;99018.97;4993318;28;20800;-78
2022/03/15 05:55:05;;;;;;;23.70;13.80;;;2.40;95.10;;;0.88;90.23;99014.69;4994336;28;20533;-79
2022/03/15 05:57:32;;;;;;;24.00;16.10;;;2.30;94.50;;;1.11;89.50;99024.22;5004803;28;20522;-80
2022/03/15 05:59:59;;;;;;;26.17;19.07;;;2.50;95.20;;;0.96;89.03;99021.03;5031276;28;20458;-79
2022/03/15 06:02:26;;;;;;;22.03;17.87;;;2.50;93.60;;;0.98;89.23;99023.56;5034512;28;20529;-78
2022/03/15 06:04:54;;;;;;;24.97;19.20;;;2.40;93.60;;;0.89;88.20;98993.25;5013291;28;20501;-83
2022/03/15 06:07:21;;;;;;;20.67;16.80;;;2.50;92.30;;;1.13;87.75;99010.78;5014400;28;20446;-83
2022/03/15 06:09:49;;;;;;;27.40;18.70;;;2.50;91.80;;;1.31;86.92;99026.16;5029396;28;20467;-81
2022/03/15 06:12:16;;;;;;;27.97;17.33;;;2.60;91.60;;;1.44;86.93;99016.16;5011396;28;20454;-79
2022/03/15 06:14:43;;;;;;;25.77;16.80;;;2.80;92.00;;;1.70;85.67;99035.19;5028559;28;20472;-76
2022/03/15 06:17:10;;;;;;;20.30;16.30;;;2.90;91.20;;;1.75;85.31;99020.66;5013393;28;20562;-76
2022/03/15 06:19:36;;;;;;;17.77;13.53;;;3.00;90.30;;;1.74;84.76;99019.78;5012313;28;20471;-75
2022/03/15 06:22:05;;;;;;;17.50;13.70;;;3.10;88.90;;;1.70;85.37;99029.88;5013507;28;20439;-74
2022/03/15 06:24:32;;;;;;;21.90;13.37;;;3.10;89.90;;;1.82;84.20;99021.78;5013136;28;20562;-75
2022/03/15 06:26:59;;;;;;;21.30;18.93;;;3.20;88.40;;;1.89;83.68;99020.25;5012255;28;20910;-76
2022/03/15 06:29:26;;;;;;;19.60;14.33;;;3.30;87.50;;;1.59;83.42;98974.00;5028340;28;20934;-76
2022/03/15 06:31:54;;;;;;;16.67;12.60;;;3.30;86.50;;;1.83;83.72;99026.13;5013759;28;20534;-75
2022/03/15 06:34:22;;;;;;;14.27;11.63;;;3.30;86.20;;;2.34;83.16;99015.44;5012574;28;20443;-76
2022/03/15 06:36:49;;;;;;;16.17;11.50;;;3.60;88.10;;;2.30;81.53;99009.56;5013705;28;20487;-75
2022/03/15 06:39:17;;;;;;;16.20;12.20;;;3.60;83.90;;;2.33;82.20;99019.09;5013282;28;20439;-75
2022/03/15 06:41:44;;;;;;;16.47;12.40;;;3.70;85.50;;;2.33;82.09;99009.28;5013491;28;20480;-76
2022/03/15 06:44:11;;;;;;;18.30;13.57;;;3.70;85.20;;;2.30;81.61;99014.91;5013422;28;20459;-77
2022/03/15 06:46:38;;;;;;;19.43;15.10;;;3.70;84.00;;;2.43;81.07;99019.97;5012586;28;20558;-75
2022/03/15 06:49:06;;;;;;;15.87;13.90;;;3.80;83.70;;;2.45;82.60;99015.34;5011933;28;20485;-74
2022/03/15 06:51:33;;;;;;;19.43;13.97;;;3.70;85.40;;;2.75;81.03;99010.84;5032649;28;20909;-73
2022/03/15 06:54:00;;;;;;;20.60;14.20;;;4.00;84.10;;;3.03;79.57;99016.31;5027844;28;20447;-74
2022/03/15 06:56:28;;;;;;;21.60;13.83;;;4.10;83.20;;;3.07;79.04;99015.03;5028431;28;20438;-76
2022/03/15 06:58:55;;;;;;;26.50;15.73;;;4.30;82.20;;;3.38;78.47;99022.84;5016918;28;20819;-75
2022/03/15 07:01:22;;;;;;;21.90;15.23;;;4.50;81.30;;;3.63;77.79;99009.84;5009885;28;20509;-76
2022/03/15 07:03:50;;;;;;;22.17;15.57;;;4.70;80.90;;;3.76;76.63;99014.03;5012142;28;20458;-77
2022/03/15 07:06:17;;;;;;;29.17;18.37;;;4.90;79.90;;;3.71;76.88;99011.78;5017410;28;20485;-73
2022/03/15 07:08:44;;;;;;;25.93;16.07;;;5.00;79.50;;;3.96;76.68;99010.25;5013713;28;20516;-73
2022/03/15 07:11:11;;;;;;;21.87;15.33;;;5.10;79.10;;;4.03;76.13;99007.00;5006059;28;21008;-75
2022/03/15 07:13:40;;;;;;;20.17;14.20;;;5.30;78.90;;;3.89;76.81;99006.50;4999525;28;20451;-73
2022/03/15 07:16:07;;;;;;;18.40;12.50;;;5.30;79.00;;;4.01;76.79;99008.97;5013846;28;20545;-74
2022/03/15 07:18:34;;;;;;;17.70;12.17;;;5.40;79.10;;;4.23;76.19;99010.41;5011595;28;20454;-75
2022/03/15 07:21:01;;;;;;;18.13;13.57;;;5.50;78.90;;;4.36;76.39;99007.38;5009333;28;20479;-74
2022/03/15 07:23:28;;;;;;;14.60;10.00;;;5.70;78.60;;;4.37;76.38;98998.34;4993251;28;20553;-74
2022/03/15 07:25:55;;;;;;;11.93;9.73;;;5.80;78.30;;;4.28;76.67;99000.09;4996005;28;20480;-83
2022/03/15 07:28:22;;;;;;;10.60;9.10;;;5.70;78.30;;;4.44;75.77;99001.25;5011263;28;20452;-78
2022/03/15 07:30:50;;;;;;;16.93;8.90;;;5.80;78.00;;;4.45;76.05;99001.09;4996938;28;20475;-78
2022/03/15 07:33:17;;;;;;;11.47;8.40;;;5.80;77.80;;;4.46;75.38;99008.13;4997694;28;20502;-79
2022/03/15 07:35:44;;;;;;;12.73;8.23;;;5.80;77.80;;;4.44;75.59;99004.78;5011734;28;20437;-77
2022/03/15 07:38:13;;;;;;;13.70;9.00;;;5.80;77.70;;;4.59;75.31;98996.22;5011259;28;20871;-78
2022/03/15 07:40:41;;;;;;;13.43;8.00;;;5.90;77.90;;;4.66;74.41;98998.13;5010381;28;20440;-78
2022/03/15 07:43:08;;;;;;;11.90;8.80;;;6.00;77.40;;;4.63;74.76;98986.91;5014834;28;20526;-78
2022/03/15 07:45:35;;;;;;;9.80;7.87;;;6.00;77.50;;;4.57;75.58;98982.16;5016108;28;20473;-78
2022/03/15 07:48:05;;;;;;;13.60;8.63;;;6.00;77.30;;;4.90;74.56;98988.63;5016037;28;20458;-77
2022/03/15 07:50:33;;;;;;;13.60;8.73;;;6.20;77.10;;;4.81;74.76;98984.19;5024474;28;20626;-79
2022/03/15 07:53:00;;;;;;;9.70;8.03;;;6.20;77.20;;;4.95;73.95;98986.31;5035495;28;20430;-78
2022/03/15 07:55:27;;;;;;;18.33;7.93;;;6.30;76.90;;;5.17;73.16;98986.84;5036590;28;20448;-76
2022/03/15 07:57:54;;;;;;;10.63;8.10;;;6.40;76.90;;;5.38;73.25;98989.16;5035675;28;20496;-78
2022/03/15 08:00:21;;;;;;;10.50;8.40;;;6.60;76.40;;;5.52;72.07;98976.13;5035331;28;20450;-77
2022/03/15 08:02:48;;;;;;;9.20;7.33;;;6.80;76.00;;;5.47;71.76;98986.50;5035378;28;20431;-77
2022/03/15 08:05:16;;;;;;;9.93;7.53;;;6.80;75.40;;;5.56;71.95;98985.56;5035566;28;21016;-76
2022/03/15 08:07:43;;;;;;;10.37;7.30;;;6.90;75.10;;;5.60;71.90;98981.56;5035246;28;20521;-77
2022/03/15 08:10:11;;;;;;;9.57;8.00;;;6.90;75.10;;;5.71;71.01;98980.44;5035669;28;20442;-77
2022/03/15 08:12:39;;;;;;;11.33;6.83;;;7.00;75.00;;;5.95;70.01;98968.94;5033771;28;20522;-79
2022/03/15 08:15:09;;;;;;;10.50;6.87;;;7.20;74.60;;;6.04;69.90;98974.41;5034362;28;20439;-78
2022/03/15 08:17:37;;;;;;;11.70;7.80;;;7.30;74.30;;;6.03;69.83;98972.72;5033550;28;20852;-79
2022/03/15 08:20:06;;;;;;;8.63;7.30;;;7.40;73.90;;;6.10;69.66;98973.72;5035026;28;20485;-77
2022/03/15 08:22:35;;;;;;;9.77;7.43;;;7.40;73.90;;;6.29;69.62;98967.25;5034634;28;20564;-77
2022/03/15 08:25:03;;;;;;;12.33;7.83;;;7.50;73.90;;;6.29;69.39;98961.03;5033192;28;20953;-78
2022/03/15 08:27:31;;;;;;;10.07;6.97;;;7.60;73.40;;;6.24;69.10;98959.69;5034762;28;20438;-79
2022/03/15 08:29:58;;;;;;;14.43;8.27;;;7.60;73.30;;;6.36;69.24;98960.19;5033710;28;20447;-80
2022/03/15 08:32:25;;;;;;;11.17;7.03;;;7.60;73.40;;;6.79;67.46;98956.56;5034600;28;20492;-78
2022/03/15 08:34:53;;;;;;;11.97;7.20;;;7.90;72.90;;;6.87;66.77;98956.56;5034913;28;20477;-78
2022/03/15 08:37:20;;;;;;;10.63;7.87;;;8.00;72.40;;;6.91;67.32;98959.75;5034667;28;20526;-77
2022/03/15 08:39:49;;;;;;;8.97;6.50;;;8.10;72.30;;;7.06;66.63;98951.84;5034052;28;20743;-78
2022/03/15 08:42:16;;;;;;;8.17;6.23;;;8.30;71.90;;;6.62;66.63;98902.00;5033664;28;20533;-77
2022/03/15 08:44:43;;;;;;;8.80;7.70;;;8.30;71.20;;;6.97;66.56;98951.00;5033860;28;20506;-77
2022/03/15 08:47:10;;;;;;;12.97;6.83;;;8.30;71.50;;;7.16;66.21;98946.28;5034368;28;20549;-76
2022/03/15 08:49:38;;;;;;;13.70;6.73;;;8.40;71.50;;;7.13;66.10;98952.00;5033857;28;20467;-80
2022/03/15 08:52:08;;;;;;;11.53;7.30;;;8.40;70.90;;;7.07;65.79;98942.78;5014916;28;20599;-78
2022/03/15 08:54:35;;;;;;;8.98;7.20;;;8.40;70.50;;;7.08;66.30;98942.59;5014211;28;20486;-79
2022/03/15 08:57:04;;;;;;;11.30;7.50;;;8.40;70.70;;;7.01;65.94;98920.09;5015145;28;20586;-77
2022/03/15 08:59:32;;;;;;;8.93;7.70;;;8.50;70.30;;;6.99;66.33;98932.88;5014111;28;20542;-78
2022/03/15 09:02:00;;;;;;;13.20;7.93;;;8.40;70.10;;;7.41;65.04;98930.09;5015237;28;20438;-80
2022/03/15 09:04:27;;;;;;;7.70;6.90;;;8.50;70.30;;;7.88;64.10;98923.88;5015612;28;20550;-79
2022/03/15 09:06:54;;;;;;;11.13;7.43;;;8.80;70.20;;;8.02;62.84;98918.75;5013952;28;20458;-81
2022/03/15 09:09:24;;;;;;;10.10;7.50;;;9.10;68.90;;;7.70;63.83;98917.91;5015533;28;20470;-77
2022/03/15 09:11:51;;;;;;;7.37;6.60;;;8.90;68.70;;;7.82;63.98;98911.13;5013241;28;20443;-76
2022/03/15 09:14:19;;;;;;;10.27;7.20;;;9.00;69.00;;;8.38;62.03;98912.78;5014037;28;20968;-78
2022/03/15 09:16:46;;;;;;;9.40;6.90;;;9.40;68.30;;;8.18;62.20;98907.03;5015604;28;20471;-82
2022/03/15 09:19:13;;;;;;;9.63;6.80;;;9.50;67.30;;;8.19;62.01;98914.13;5019442;28;20494;-84
2022/03/15 09:21:40;;;;;;;9.30;8.00;;;9.50;67.10;;;7.86;63.19;98914.28;5022220;28;20926;-82
2022/03/15 09:24:08;;;;;;;8.13;7.07;;;9.30;67.10;;;8.10;62.35;98899.84;5022337;28;20471;-83
2022/03/15 09:26:35;;;;;;;11.20;7.87;;;9.30;67.30;;;8.43;61.99;98901.50;5019311;28;20436;-84
2022/03/15 09:29:02;;;;;;;10.70;7.30;;;9.50;67.10;;;8.33;61.01;98910.63;5020430;28;20439;-83
2022/03/15 09:31:30;;;;;;;11.13;7.73;;;9.70;66.30;;;8.56;61.07;98904.44;5017009;28;20504;-83
2022/03/15 09:33:57;;;;;;;10.70;7.50;;;9.70;66.50;;;8.48;61.14;98904.47;5015075;28;20480;-83
2022/03/15 09:36:24;;;;;;;8.77;7.57;;;9.80;65.80;;;8.11;61.80;98890.75;5014650;28;20552;-85
2022/03/15 09:38:51;;;;;;;9.70;7.67;;;9.60;66.00;;;7.96;62.85;98885.31;5015259;28;20444;-82
2022/03/15 09:41:18;;;;;;;13.13;7.50;;;9.30;66.80;;;7.75;63.67;98873.31;5013587;28;20530;-83
2022/03/15 09:43:47;;;;;;;8.80;7.60;;;9.20;66.80;;;7.50;64.50;98867.19;5015343;28;20427;-84
2022/03/15 09:46:15;;;;;;;11.00;8.60;;;8.90;67.30;;;7.70;63.96;98853.34;5014873;28;20451;-83
2022/03/15 09:48:46;;;;;;;13.50;8.80;;;9.00;67.60;;;8.01;63.32;98852.50;5013386;28;20193;-75
2022/03/15 09:51:15;;;;;;;13.00;7.93;;;9.20;67.50;;;7.97;63.34;98861.94;5013937;28;20535;-82
2022/03/15 09:53:43;;;;;;;9.00;7.70;;;9.20;67.30;;;8.37;62.76;98862.66;5004030;28;20440;-82
2022/03/15 09:56:11;;;;;;;10.50;7.60;;;9.40;67.40;;;8.69;61.40;98868.81;4993826;28;20784;-74
2022/03/15 09:58:38;;;;;;;12.47;7.77;;;9.60;67.00;;;8.77;61.04;98874.13;4994307;28;20448;-73
2022/03/15 10:01:05;;;;;;;8.80;6.53;;;9.80;66.50;;;8.50;62.01;98868.31;4994008;28;20467;-76
2022/03/15 10:03:34;;;;;;;12.10;7.57;;;9.70;66.40;;;8.62;61.36;98860.63;4998425;28;20472;-76
2022/03/15 10:06:02;;;;;;;10.00;7.10;;;9.80;66.60;;;8.60;61.53;98859.97;5011836;28;20471;-75
2022/03/15 10:08:29;;;;;;;9.20;7.97;;;9.70;66.20;;;8.46;62.22;98861.56;5011960;28;20845;-75
2022/03/15 10:10:56;;;;;;;17.53;8.40;;;9.70;66.40;;;8.54;61.26;98851.78;5013574;28;20536;-74
2022/03/15 10:13:23;;;;;;;11.77;8.03;;;9.80;66.30;;;8.53;61.65;98855.47;5011729;28;20448;-76
2022/03/15 10:15:56;;;;;;;15.53;9.07;;;9.90;66.10;;;8.68;61.47;98856.34;5012477;28;20442;-74
2022/03/15 10:18:24;;;;;;;14.00;8.53;;;9.80;66.50;;;9.05;61.20;98841.19;5013545;28;20466;-76
2022/03/15 10:20:51;;;;;;;22.03;9.00;;;10.00;65.10;;;8.92;60.78;98832.91;5013892;28;20476;-75
2022/03/15 10:23:24;;;;;;;13.83;8.63;;;10.20;64.60;;;9.45;58.98;98822.00;5028467;28;20506;-75
2022/03/15 10:25:53;;;;;;;13.13;8.77;;;10.40;64.50;;;9.17;60.43;98819.13;5012730;28;20467;-75
2022/03/15 10:28:20;;;;;;;11.27;8.77;;;10.50;63.80;;;9.55;59.61;98807.34;5013923;28;20903;-74